sensor_id;sensor_type;location;lat;lon;timestamp;temperature;humidity
50013;DHT22;35901;48.694;9.476;2022-09-09T00:00:43;10.10;99.90
50013;DHT22;35901;48.694;9.476;2022-09-09T00:03:23;10.10;99.90
50013;DHT22;35901;48.694;9.476;2022-09-09T00:06:08;10.00;99.90
50013;DHT22;35901;48.694;9.476;2022-09-09T00:11:36;9.90;99.90
50013;DHT22;35901;48.694;9.476;2022-09-09T00:16:55;9.90;99.90
50013;DHT22;35901;48.694;9.476;2022-09-09T00:19:43;9.90;99.90
50013;DHT22;35901;48.694;9.476;2022-09-09T00:22:23;9.90;99.90
50013;DHT22;35901;48.694;9.476;2022-09-09T00:25:19;9.90;99.90
50013;DHT22;35901;48.694;9.476;2022-09-09T00:27:50;9.80;99.90
50013;DHT22;35901;48.694;9.476;2022-09-09T00:32:47;9.80;99.90
50013;DHT22;35901;48.694;9.476;2022-09-09T00:35:18;9.80;99.90
50013;DHT22;35901;48.694;9.476;2022-09-09T00:37:48;9.80;99.90
50013;DHT22;35901;48.694;9.476;2022-09-09T00:40:35;9.90;99.90
50013;DHT22;35901;48.694;9.476;2022-09-09T00:46:03;9.90;99.90
50013;DHT22;35901;48.694;9.476;2022-09-09T00:57:35;10.10;99.90
50013;DHT22;35901;48.694;9.476;2022-09-09T01:00:30;10.10;99.90
50013;DHT22;35901;48.694;9.476;2022-09-09T01:06:13;10.10;99.90
50013;DHT22;35901;48.694;9.476;2022-09-09T01:09:07;10.10;99.90
50013;DHT22;35901;48.694;9.476;2022-09-09T01:17:24;10.20;99.90
50013;DHT22;35901;48.694;9.476;2022-09-09T01:20:24;10.20;99.90
50013;DHT22;35901;48.694;9.476;2022-09-09T01:23:07;10.20;99.90
50013;DHT22;35901;48.694;9.476;2022-09-09T01:26:21;10.20;99.90
50013;DHT22;35901;48.694;9.476;2022-09-09T01:28:50;10.20;99.90
50013;DHT22;35901;48.694;9.476;2022-09-09T01:31:23;10.20;99.90
50013;DHT22;35901;48.694;9.476;2022-09-09T01:33:51;10.30;99.90
50013;DHT22;35901;48.694;9.476;2022-09-09T01:38:52;10.20;99.90
50013;DHT22;35901;48.694;9.476;2022-09-09T01:41:22;10.00;99.90
50013;DHT22;35901;48.694;9.476;2022-09-09T01:44:02;10.00;99.90
50013;DHT22;35901;48.694;9.476;2022-09-09T01:46:30;9.90;99.90
50013;DHT22;35901;48.694;9.476;2022-09-09T01:48:57;9.90;99.90
50013;DHT22;35901;48.694;9.476;2022-09-09T01:51:26;9.80;99.90
50013;DHT22;35901;48.694;9.476;2022-09-09T01:53:56;9.80;99.90
50013;DHT22;35901;48.694;9.476;2022-09-09T01:56:29;9.80;99.90
50013;DHT22;35901;48.694;9.476;2022-09-09T01:59:30;9.80;99.90
50013;DHT22;35901;48.694;9.476;2022-09-09T02:02:24;9.80;99.90
50013;DHT22;35901;48.694;9.476;2022-09-09T02:07:48;9.80;99.90
50013;DHT22;35901;48.694;9.476;2022-09-09T02:13:22;9.60;99.90
50013;DHT22;35901;48.694;9.476;2022-09-09T02:16:15;9.50;99.90
50013;DHT22;35901;48.694;9.476;2022-09-09T02:18:55;9.50;99.90
50013;DHT22;35901;48.694;9.476;2022-09-09T02:21:31;9.60;99.90
50013;DHT22;35901;48.694;9.476;2022-09-09T02:24:03;9.60;99.90
50013;DHT22;35901;48.694;9.476;2022-09-09T02:26:34;9.60;99.90
50013;DHT22;35901;48.694;9.476;2022-09-09T02:29:14;9.60;99.90
50013;DHT22;35901;48.694;9.476;2022-09-09T02:31:42;9.60;99.90
50013;DHT22;35901;48.694;9.476;2022-09-09T02:34:17;9.60;99.90
50013;DHT22;35901;48.694;9.476;2022-09-09T02:36:45;9.70;99.90
50013;DHT22;35901;48.694;9.476;2022-09-09T02:39:13;9.70;99.90
50013;DHT22;35901;48.694;9.476;2022-09-09T02:41:41;9.70;99.90
50013;DHT22;35901;48.694;9.476;2022-09-09T02:44:16;9.70;99.90
50013;DHT22;35901;48.694;9.476;2022-09-09T02:52:13;9.70;99.90
50013;DHT22;35901;48.694;9.476;2022-09-09T02:54:42;9.50;99.90
50013;DHT22;35901;48.694;9.476;2022-09-09T02:59:41;9.30;99.90
50013;DHT22;35901;48.694;9.476;2022-09-09T03:02:08;9.40;99.90
50013;DHT22;35901;48.694;9.476;2022-09-09T03:04:36;9.40;99.90
50013;DHT22;35901;48.694;9.476;2022-09-09T03:07:01;9.30;99.90
50013;DHT22;35901;48.694;9.476;2022-09-09T03:09:29;9.40;99.90
50013;DHT22;35901;48.694;9.476;2022-09-09T03:11:56;9.40;99.90
50013;DHT22;35901;48.694;9.476;2022-09-09T03:14:22;9.50;99.90
50013;DHT22;35901;48.694;9.476;2022-09-09T03:16:51;9.60;99.90
50013;DHT22;35901;48.694;9.476;2022-09-09T03:19:18;9.60;99.90
50013;DHT22;35901;48.694;9.476;2022-09-09T03:21:45;9.70;99.90
50013;DHT22;35901;48.694;9.476;2022-09-09T03:24:11;9.80;99.90
50013;DHT22;35901;48.694;9.476;2022-09-09T03:26:37;9.80;99.90
50013;DHT22;35901;48.694;9.476;2022-09-09T03:29:05;9.70;99.90
50013;DHT22;35901;48.694;9.476;2022-09-09T03:31:34;9.60;99.90
50013;DHT22;35901;48.694;9.476;2022-09-09T03:34:02;9.50;99.90
50013;DHT22;35901;48.694;9.476;2022-09-09T03:36:31;9.50;99.90
50013;DHT22;35901;48.694;9.476;2022-09-09T03:38:56;9.50;99.90
50013;DHT22;35901;48.694;9.476;2022-09-09T03:41:25;9.50;99.90
50013;DHT22;35901;48.694;9.476;2022-09-09T03:43:52;9.50;99.90
50013;DHT22;35901;48.694;9.476;2022-09-09T03:46:18;9.50;99.90
50013;DHT22;35901;48.694;9.476;2022-09-09T03:48:44;9.50;99.90
50013;DHT22;35901;48.694;9.476;2022-09-09T03:51:10;9.50;99.90
50013;DHT22;35901;48.694;9.476;2022-09-09T03:53:36;9.60;99.90
50013;DHT22;35901;48.694;9.476;2022-09-09T03:56:05;9.60;99.90
50013;DHT22;35901;48.694;9.476;2022-09-09T03:58:36;9.60;99.90
50013;DHT22;35901;48.694;9.476;2022-09-09T04:01:09;9.60;99.90
50013;DHT22;35901;48.694;9.476;2022-09-09T04:03:36;9.60;99.90
50013;DHT22;35901;48.694;9.476;2022-09-09T04:06:04;9.60;99.90
50013;DHT22;35901;48.694;9.476;2022-09-09T04:08:31;9.50;99.90
50013;DHT22;35901;48.694;9.476;2022-09-09T04:10:59;9.60;99.90
50013;DHT22;35901;48.694;9.476;2022-09-09T04:13:26;9.50;99.90
50013;DHT22;35901;48.694;9.476;2022-09-09T04:15:54;9.50;99.90
50013;DHT22;35901;48.694;9.476;2022-09-09T04:18:20;9.60;99.90
50013;DHT22;35901;48.694;9.476;2022-09-09T04:20:51;9.70;99.90
50013;DHT22;35901;48.694;9.476;2022-09-09T04:23:20;9.70;99.90
50013;DHT22;35901;48.694;9.476;2022-09-09T04:25:48;9.60;99.90
50013;DHT22;35901;48.694;9.476;2022-09-09T04:28:15;9.50;99.90
50013;DHT22;35901;48.694;9.476;2022-09-09T04:30:42;9.50;99.90
50013;DHT22;35901;48.694;9.476;2022-09-09T04:33:09;9.50;99.90
50013;DHT22;35901;48.694;9.476;2022-09-09T04:35:36;9.40;99.90
50013;DHT22;35901;48.694;9.476;2022-09-09T04:38:04;9.40;99.90
50013;DHT22;35901;48.694;9.476;2022-09-09T04:40:31;9.30;99.90
50013;DHT22;35901;48.694;9.476;2022-09-09T04:42:58;9.30;99.90
50013;DHT22;35901;48.694;9.476;2022-09-09T04:45:24;9.30;99.90
50013;DHT22;35901;48.694;9.476;2022-09-09T04:47:52;9.30;99.90
50013;DHT22;35901;48.694;9.476;2022-09-09T04:50:19;9.30;99.90
50013;DHT22;35901;48.694;9.476;2022-09-09T04:52:46;9.30;99.90
50013;DHT22;35901;48.694;9.476;2022-09-09T04:55:12;9.30;99.90
50013;DHT22;35901;48.694;9.476;2022-09-09T04:57:40;9.50;99.90
50013;DHT22;35901;48.694;9.476;2022-09-09T05:00:06;9.60;99.90
50013;DHT22;35901;48.694;9.476;2022-09-09T05:02:37;9.60;99.90
50013;DHT22;35901;48.694;9.476;2022-09-09T05:05:05;9.60;99.90
50013;DHT22;35901;48.694;9.476;2022-09-09T05:07:31;9.70;99.90
50013;DHT22;35901;48.694;9.476;2022-09-09T05:09:57;9.70;99.90
50013;DHT22;35901;48.694;9.476;2022-09-09T05:12:24;9.70;99.90
50013;DHT22;35901;48.694;9.476;2022-09-09T05:14:54;9.60;99.90
50013;DHT22;35901;48.694;9.476;2022-09-09T05:17:20;9.60;99.90
50013;DHT22;35901;48.694;9.476;2022-09-09T05:19:47;9.50;99.90
50013;DHT22;35901;48.694;9.476;2022-09-09T05:22:17;9.50;99.90
50013;DHT22;35901;48.694;9.476;2022-09-09T05:24:44;9.50;99.90
50013;DHT22;35901;48.694;9.476;2022-09-09T05:27:10;9.60;99.90
50013;DHT22;35901;48.694;9.476;2022-09-09T05:29:39;9.60;99.90
50013;DHT22;35901;48.694;9.476;2022-09-09T05:32:08;9.60;99.90
50013;DHT22;35901;48.694;9.476;2022-09-09T05:34:35;10.00;99.90
50013;DHT22;35901;48.694;9.476;2022-09-09T05:37:03;10.10;99.90
50013;DHT22;35901;48.694;9.476;2022-09-09T05:39:31;10.10;99.90
50013;DHT22;35901;48.694;9.476;2022-09-09T05:41:58;10.10;99.90
50013;DHT22;35901;48.694;9.476;2022-09-09T05:44:24;10.10;99.90
50013;DHT22;35901;48.694;9.476;2022-09-09T05:46:53;10.00;99.90
50013;DHT22;35901;48.694;9.476;2022-09-09T05:49:21;10.10;99.90
50013;DHT22;35901;48.694;9.476;2022-09-09T05:51:47;10.60;99.90
50013;DHT22;35901;48.694;9.476;2022-09-09T05:54:16;11.10;99.90
50013;DHT22;35901;48.694;9.476;2022-09-09T05:56:45;11.80;99.90
50013;DHT22;35901;48.694;9.476;2022-09-09T05:59:16;12.30;99.90
50013;DHT22;35901;48.694;9.476;2022-09-09T06:01:42;12.20;99.90
50013;DHT22;35901;48.694;9.476;2022-09-09T06:04:14;12.00;99.90
50013;DHT22;35901;48.694;9.476;2022-09-09T06:06:40;11.90;99.90
50013;DHT22;35901;48.694;9.476;2022-09-09T06:09:13;11.80;99.90
50013;DHT22;35901;48.694;9.476;2022-09-09T06:11:41;11.80;99.90
50013;DHT22;35901;48.694;9.476;2022-09-09T06:14:07;11.80;99.90
50013;DHT22;35901;48.694;9.476;2022-09-09T06:16:35;11.80;99.90
50013;DHT22;35901;48.694;9.476;2022-09-09T06:19:04;11.80;99.90
50013;DHT22;35901;48.694;9.476;2022-09-09T06:21:35;11.90;99.90
50013;DHT22;35901;48.694;9.476;2022-09-09T06:24:07;12.00;99.90
50013;DHT22;35901;48.694;9.476;2022-09-09T06:26:35;12.00;99.90
50013;DHT22;35901;48.694;9.476;2022-09-09T06:29:03;12.10;99.90
50013;DHT22;35901;48.694;9.476;2022-09-09T06:31:31;12.20;99.90
50013;DHT22;35901;48.694;9.476;2022-09-09T06:34:08;12.20;99.90
50013;DHT22;35901;48.694;9.476;2022-09-09T06:36:36;12.30;99.90
50013;DHT22;35901;48.694;9.476;2022-09-09T06:39:03;12.40;99.90
50013;DHT22;35901;48.694;9.476;2022-09-09T06:41:31;12.60;99.90
50013;DHT22;35901;48.694;9.476;2022-09-09T06:43:57;12.60;99.90
50013;DHT22;35901;48.694;9.476;2022-09-09T06:46:32;12.70;99.90
50013;DHT22;35901;48.694;9.476;2022-09-09T06:48:59;13.20;99.90
50013;DHT22;35901;48.694;9.476;2022-09-09T06:51:31;14.60;99.90
50013;DHT22;35901;48.694;9.476;2022-09-09T06:53:59;15.80;99.90
50013;DHT22;35901;48.694;9.476;2022-09-09T06:56:33;16.40;99.90
50013;DHT22;35901;48.694;9.476;2022-09-09T06:59:04;16.80;99.90
50013;DHT22;35901;48.694;9.476;2022-09-09T07:01:34;16.90;99.90
50013;DHT22;35901;48.694;9.476;2022-09-09T07:04:05;16.60;99.90
50013;DHT22;35901;48.694;9.476;2022-09-09T07:06:42;16.40;99.90
50013;DHT22;35901;48.694;9.476;2022-09-09T07:09:12;16.10;99.90
50013;DHT22;35901;48.694;9.476;2022-09-09T07:11:46;16.00;99.90
50013;DHT22;35901;48.694;9.476;2022-09-09T07:14:13;16.20;99.90
50013;DHT22;35901;48.694;9.476;2022-09-09T07:16:44;16.30;99.90
50013;DHT22;35901;48.694;9.476;2022-09-09T07:19:12;16.40;99.90
50013;DHT22;35901;48.694;9.476;2022-09-09T07:21:40;16.30;99.90
50013;DHT22;35901;48.694;9.476;2022-09-09T07:24:06;16.30;99.90
50013;DHT22;35901;48.694;9.476;2022-09-09T07:26:38;16.30;99.90
50013;DHT22;35901;48.694;9.476;2022-09-09T07:29:04;16.30;99.90
50013;DHT22;35901;48.694;9.476;2022-09-09T07:31:33;16.30;99.90
50013;DHT22;35901;48.694;9.476;2022-09-09T07:34:01;16.40;99.90
50013;DHT22;35901;48.694;9.476;2022-09-09T07:36:32;16.50;99.90
50013;DHT22;35901;48.694;9.476;2022-09-09T07:39:05;16.70;99.90
50013;DHT22;35901;48.694;9.476;2022-09-09T07:41:38;17.00;99.90
50013;DHT22;35901;48.694;9.476;2022-09-09T07:44:10;17.10;99.90
50013;DHT22;35901;48.694;9.476;2022-09-09T07:46:37;18.00;99.90
50013;DHT22;35901;48.694;9.476;2022-09-09T07:49:07;19.00;99.90
50013;DHT22;35901;48.694;9.476;2022-09-09T07:51:41;19.30;99.90
50013;DHT22;35901;48.694;9.476;2022-09-09T07:54:10;19.40;99.90
50013;DHT22;35901;48.694;9.476;2022-09-09T07:56:39;19.80;99.90
50013;DHT22;35901;48.694;9.476;2022-09-09T07:59:06;20.00;99.90
50013;DHT22;35901;48.694;9.476;2022-09-09T08:01:39;19.90;99.90
50013;DHT22;35901;48.694;9.476;2022-09-09T08:04:10;19.80;99.90
50013;DHT22;35901;48.694;9.476;2022-09-09T08:06:44;19.50;99.90
50013;DHT22;35901;48.694;9.476;2022-09-09T08:09:10;19.40;99.90
50013;DHT22;35901;48.694;9.476;2022-09-09T08:11:39;19.50;99.90
50013;DHT22;35901;48.694;9.476;2022-09-09T08:14:07;20.30;99.90
50013;DHT22;35901;48.694;9.476;2022-09-09T08:16:37;20.90;99.20
50013;DHT22;35901;48.694;9.476;2022-09-09T08:19:04;21.30;97.80
50013;DHT22;35901;48.694;9.476;2022-09-09T08:21:33;21.20;96.50
50013;DHT22;35901;48.694;9.476;2022-09-09T08:24:00;21.10;96.40
50013;DHT22;35901;48.694;9.476;2022-09-09T08:26:35;21.10;96.50
50013;DHT22;35901;48.694;9.476;2022-09-09T08:29:03;21.00;96.40
50013;DHT22;35901;48.694;9.476;2022-09-09T08:31:33;21.20;95.50
50013;DHT22;35901;48.694;9.476;2022-09-09T08:34:01;21.40;95.30
50013;DHT22;35901;48.694;9.476;2022-09-09T08:36:31;21.80;94.90
50013;DHT22;35901;48.694;9.476;2022-09-09T08:38:59;22.10;93.60
50013;DHT22;35901;48.694;9.476;2022-09-09T08:52:23;23.20;91.00
50013;DHT22;35901;48.694;9.476;2022-09-09T08:54:51;23.00;90.60
50013;DHT22;35901;48.694;9.476;2022-09-09T08:57:26;23.00;91.00
50013;DHT22;35901;48.694;9.476;2022-09-09T08:59:55;22.90;90.40
50013;DHT22;35901;48.694;9.476;2022-09-09T09:05:47;22.60;90.50
50013;DHT22;35901;48.694;9.476;2022-09-09T09:08:25;21.90;90.70
50013;DHT22;35901;48.694;9.476;2022-09-09T09:10:54;21.50;91.60
50013;DHT22;35901;48.694;9.476;2022-09-09T09:16:27;21.80;91.70
50013;DHT22;35901;48.694;9.476;2022-09-09T09:18:55;21.60;91.00
50013;DHT22;35901;48.694;9.476;2022-09-09T09:21:43;21.40;91.20
50013;DHT22;35901;48.694;9.476;2022-09-09T09:25:02;21.10;91.40
50013;DHT22;35901;48.694;9.476;2022-09-09T09:27:20;20.80;91.60
50013;DHT22;35901;48.694;9.476;2022-09-09T09:29:50;20.60;91.80
50013;DHT22;35901;48.694;9.476;2022-09-09T09:32:20;20.60;92.10
50013;DHT22;35901;48.694;9.476;2022-09-09T09:34:58;20.60;91.60
50013;DHT22;35901;48.694;9.476;2022-09-09T09:37:31;20.70;91.40
50013;DHT22;35901;48.694;9.476;2022-09-09T09:40:12;20.80;91.80
50013;DHT22;35901;48.694;9.476;2022-09-09T09:43:00;20.90;91.40
50013;DHT22;35901;48.694;9.476;2022-09-09T09:45:41;20.80;91.50
50013;DHT22;35901;48.694;9.476;2022-09-09T09:48:11;21.30;91.20
50013;DHT22;35901;48.694;9.476;2022-09-09T09:51:06;22.10;90.80
50013;DHT22;35901;48.694;9.476;2022-09-09T09:53:36;22.70;89.80
50013;DHT22;35901;48.694;9.476;2022-09-09T09:56:05;23.00;88.40
50013;DHT22;35901;48.694;9.476;2022-09-09T09:58:50;23.10;85.20
50013;DHT22;35901;48.694;9.476;2022-09-09T10:01:33;22.90;83.00
50013;DHT22;35901;48.694;9.476;2022-09-09T10:04:22;22.70;84.10
50013;DHT22;35901;48.694;9.476;2022-09-09T10:06:54;23.00;83.10
50013;DHT22;35901;48.694;9.476;2022-09-09T10:09:31;23.00;82.50
50013;DHT22;35901;48.694;9.476;2022-09-09T10:12:23;23.10;83.50
50013;DHT22;35901;48.694;9.476;2022-09-09T10:15:31;23.40;81.50
50013;DHT22;35901;48.694;9.476;2022-09-09T10:37:35;24.20;74.00
50013;DHT22;35901;48.694;9.476;2022-09-09T10:42:41;24.30;73.20
50013;DHT22;35901;48.694;9.476;2022-09-09T10:45:23;24.60;74.00
50013;DHT22;35901;48.694;9.476;2022-09-09T10:53:20;24.50;71.90
50013;DHT22;35901;48.694;9.476;2022-09-09T10:55:53;24.80;70.10
50013;DHT22;35901;48.694;9.476;2022-09-09T10:58:29;24.00;69.00
50013;DHT22;35901;48.694;9.476;2022-09-09T11:01:05;23.50;71.80
50013;DHT22;35901;48.694;9.476;2022-09-09T11:03:34;23.50;72.10
50013;DHT22;35901;48.694;9.476;2022-09-09T11:06:05;23.20;72.00
50013;DHT22;35901;48.694;9.476;2022-09-09T11:08:35;22.90;72.80
50013;DHT22;35901;48.694;9.476;2022-09-09T11:11:21;22.50;74.40
50013;DHT22;35901;48.694;9.476;2022-09-09T11:14:15;22.60;75.70
50013;DHT22;35901;48.694;9.476;2022-09-09T11:16:50;23.30;74.10
50013;DHT22;35901;48.694;9.476;2022-09-09T11:19:25;23.90;73.30
50013;DHT22;35901;48.694;9.476;2022-09-09T11:21:53;24.40;71.30
50013;DHT22;35901;48.694;9.476;2022-09-09T11:24:40;24.60;70.00
50013;DHT22;35901;48.694;9.476;2022-09-09T11:27:15;24.90;69.70
50013;DHT22;35901;48.694;9.476;2022-09-09T11:35:14;25.00;68.70
50013;DHT22;35901;48.694;9.476;2022-09-09T11:40:44;25.60;67.00
50013;DHT22;35901;48.694;9.476;2022-09-09T11:43:12;25.60;65.30
50013;DHT22;35901;48.694;9.476;2022-09-09T11:45:40;25.10;64.40
50013;DHT22;35901;48.694;9.476;2022-09-09T11:51:08;21.90;82.50
50013;DHT22;35901;48.694;9.476;2022-09-09T11:53:36;20.40;90.50
50013;DHT22;35901;48.694;9.476;2022-09-09T11:56:22;19.70;92.40
50013;DHT22;35901;48.694;9.476;2022-09-09T11:59:06;19.40;93.30
50013;DHT22;35901;48.694;9.476;2022-09-09T12:01:45;19.00;93.30
50013;DHT22;35901;48.694;9.476;2022-09-09T12:04:37;18.60;93.70
50013;DHT22;35901;48.694;9.476;2022-09-09T12:07:05;18.10;95.60
50013;DHT22;35901;48.694;9.476;2022-09-09T12:10:05;17.70;98.20
50013;DHT22;35901;48.694;9.476;2022-09-09T12:12:34;17.70;99.90
50013;DHT22;35901;48.694;9.476;2022-09-09T12:17:45;18.60;99.90
50013;DHT22;35901;48.694;9.476;2022-09-09T12:25:58;18.30;99.90
50013;DHT22;35901;48.694;9.476;2022-09-09T12:34:15;20.00;99.90
50013;DHT22;35901;48.694;9.476;2022-09-09T12:36:42;20.50;97.00
50013;DHT22;35901;48.694;9.476;2022-09-09T12:39:40;20.80;95.90
50013;DHT22;35901;48.694;9.476;2022-09-09T12:42:17;21.10;94.80
50013;DHT22;35901;48.694;9.476;2022-09-09T12:44:53;21.40;91.00
50013;DHT22;35901;48.694;9.476;2022-09-09T12:47:23;21.50;88.10
50013;DHT22;35901;48.694;9.476;2022-09-09T12:49:50;21.60;87.20
50013;DHT22;35901;48.694;9.476;2022-09-09T12:52:29;21.70;85.60
50013;DHT22;35901;48.694;9.476;2022-09-09T12:54:57;21.90;83.40
50013;DHT22;35901;48.694;9.476;2022-09-09T12:57:25;22.00;82.90
50013;DHT22;35901;48.694;9.476;2022-09-09T12:59:51;22.20;81.80
50013;DHT22;35901;48.694;9.476;2022-09-09T13:02:22;22.30;80.00
50013;DHT22;35901;48.694;9.476;2022-09-09T13:04:49;22.40;78.10
50013;DHT22;35901;48.694;9.476;2022-09-09T13:07:17;22.30;77.70
50013;DHT22;35901;48.694;9.476;2022-09-09T13:09:45;21.90;77.90
50013;DHT22;35901;48.694;9.476;2022-09-09T13:12:21;22.20;76.80
50013;DHT22;35901;48.694;9.476;2022-09-09T13:14:50;22.50;75.50
50013;DHT22;35901;48.694;9.476;2022-09-09T13:17:24;22.40;75.90
50013;DHT22;35901;48.694;9.476;2022-09-09T13:19:51;22.60;75.50
50013;DHT22;35901;48.694;9.476;2022-09-09T13:22:37;22.90;73.60
50013;DHT22;35901;48.694;9.476;2022-09-09T13:25:24;23.20;73.00
50013;DHT22;35901;48.694;9.476;2022-09-09T13:28:04;23.50;72.60
50013;DHT22;35901;48.694;9.476;2022-09-09T13:30:33;23.30;70.90
50013;DHT22;35901;48.694;9.476;2022-09-09T13:38:15;21.90;72.50
50013;DHT22;35901;48.694;9.476;2022-09-09T13:40:57;21.80;72.90
50013;DHT22;35901;48.694;9.476;2022-09-09T13:43:29;21.80;72.90
50013;DHT22;35901;48.694;9.476;2022-09-09T14:05:49;23.60;68.30
50013;DHT22;35901;48.694;9.476;2022-09-09T14:08:22;23.50;69.40
50013;DHT22;35901;48.694;9.476;2022-09-09T14:10:49;23.40;69.50
50013;DHT22;35901;48.694;9.476;2022-09-09T14:13:16;23.30;70.30
50013;DHT22;35901;48.694;9.476;2022-09-09T14:15:41;23.20;70.20
50013;DHT22;35901;48.694;9.476;2022-09-09T14:25:42;23.20;72.10
50013;DHT22;35901;48.694;9.476;2022-09-09T14:28:10;23.00;71.50
50013;DHT22;35901;48.694;9.476;2022-09-09T14:30:39;22.70;71.80
50013;DHT22;35901;48.694;9.476;2022-09-09T14:36:54;21.90;72.00
50013;DHT22;35901;48.694;9.476;2022-09-09T14:39:20;21.70;71.90
50013;DHT22;35901;48.694;9.476;2022-09-09T14:41:45;21.60;71.20
50013;DHT22;35901;48.694;9.476;2022-09-09T14:48:03;21.40;71.70
50013;DHT22;35901;48.694;9.476;2022-09-09T14:54:16;22.60;70.60
50013;DHT22;35901;48.694;9.476;2022-09-09T14:56:42;22.90;68.60
50013;DHT22;35901;48.694;9.476;2022-09-09T14:59:07;22.80;68.50
50013;DHT22;35901;48.694;9.476;2022-09-09T15:05:39;23.10;68.10
50013;DHT22;35901;48.694;9.476;2022-09-09T15:08:05;23.00;67.10
50013;DHT22;35901;48.694;9.476;2022-09-09T15:10:31;23.00;66.40
50013;DHT22;35901;48.694;9.476;2022-09-09T15:16:47;22.50;67.30
50013;DHT22;35901;48.694;9.476;2022-09-09T15:26:10;23.40;64.70
50013;DHT22;35901;48.694;9.476;2022-09-09T15:28:37;23.20;64.60
50013;DHT22;35901;48.694;9.476;2022-09-09T15:39:15;21.90;68.20
50013;DHT22;35901;48.694;9.476;2022-09-09T15:41:42;22.00;68.70
50013;DHT22;35901;48.694;9.476;2022-09-09T15:44:09;22.00;68.60
50013;DHT22;35901;48.694;9.476;2022-09-09T15:50:24;21.70;69.30
50013;DHT22;35901;48.694;9.476;2022-09-09T15:52:49;21.60;70.60
50013;DHT22;35901;48.694;9.476;2022-09-09T15:55:15;21.50;70.80
50013;DHT22;35901;48.694;9.476;2022-09-09T16:01:29;21.70;71.10
50013;DHT22;35901;48.694;9.476;2022-09-09T16:08:16;21.30;70.10
50013;DHT22;35901;48.694;9.476;2022-09-09T16:10:43;20.90;70.20
50013;DHT22;35901;48.694;9.476;2022-09-09T16:13:09;20.80;70.10
50013;DHT22;35901;48.694;9.476;2022-09-09T16:20:02;20.40;70.60
50013;DHT22;35901;48.694;9.476;2022-09-09T16:22:28;20.30;70.70
50013;DHT22;35901;48.694;9.476;2022-09-09T16:24:53;20.20;70.50
50013;DHT22;35901;48.694;9.476;2022-09-09T16:27:46;20.20;70.70
50013;DHT22;35901;48.694;9.476;2022-09-09T16:30:26;20.10;70.40
50013;DHT22;35901;48.694;9.476;2022-09-09T16:32:57;20.10;70.60
50013;DHT22;35901;48.694;9.476;2022-09-09T16:35:27;20.10;70.30
50013;DHT22;35901;48.694;9.476;2022-09-09T16:37:59;20.00;70.40
50013;DHT22;35901;48.694;9.476;2022-09-09T16:40:50;20.00;70.60
50013;DHT22;35901;48.694;9.476;2022-09-09T16:47:02;19.90;70.00
50013;DHT22;35901;48.694;9.476;2022-09-09T16:49:28;19.80;70.60
50013;DHT22;35901;48.694;9.476;2022-09-09T17:15:24;19.40;72.70
50013;DHT22;35901;48.694;9.476;2022-09-09T17:17:50;19.10;73.20
50013;DHT22;35901;48.694;9.476;2022-09-09T17:20:19;19.00;73.90
50013;DHT22;35901;48.694;9.476;2022-09-09T17:22:44;18.90;74.20
50013;DHT22;35901;48.694;9.476;2022-09-09T17:25:10;18.90;74.80
50013;DHT22;35901;48.694;9.476;2022-09-09T17:27:51;18.70;75.30
50013;DHT22;35901;48.694;9.476;2022-09-09T17:30:23;18.70;75.90
50013;DHT22;35901;48.694;9.476;2022-09-09T17:36:56;18.50;77.60
50013;DHT22;35901;48.694;9.476;2022-09-09T17:39:21;18.30;78.40
50013;DHT22;35901;48.694;9.476;2022-09-09T17:41:47;18.20;78.60
50013;DHT22;35901;48.694;9.476;2022-09-09T17:44:14;18.10;78.90
50013;DHT22;35901;48.694;9.476;2022-09-09T17:46:55;17.90;79.10
50013;DHT22;35901;48.694;9.476;2022-09-09T17:49:26;17.70;79.60
50013;DHT22;35901;48.694;9.476;2022-09-09T17:51:57;17.60;80.10
50013;DHT22;35901;48.694;9.476;2022-09-09T17:54:46;17.50;80.50
50013;DHT22;35901;48.694;9.476;2022-09-09T17:57:17;17.40;80.90
50013;DHT22;35901;48.694;9.476;2022-09-09T17:59:49;17.30;81.30
50013;DHT22;35901;48.694;9.476;2022-09-09T18:02:43;17.30;81.60
50013;DHT22;35901;48.694;9.476;2022-09-09T18:05:10;17.30;81.80
50013;DHT22;35901;48.694;9.476;2022-09-09T18:07:52;17.30;81.90
50013;DHT22;35901;48.694;9.476;2022-09-09T18:10:53;17.30;81.80
50013;DHT22;35901;48.694;9.476;2022-09-09T18:13:47;17.30;82.00
50013;DHT22;35901;48.694;9.476;2022-09-09T18:21:06;17.20;83.00
50013;DHT22;35901;48.694;9.476;2022-09-09T18:24:06;17.20;83.20
50013;DHT22;35901;48.694;9.476;2022-09-09T18:26:38;17.20;83.50
50013;DHT22;35901;48.694;9.476;2022-09-09T18:29:29;17.20;83.70
50013;DHT22;35901;48.694;9.476;2022-09-09T18:36:03;17.00;84.30
50013;DHT22;35901;48.694;9.476;2022-09-09T18:38:51;16.90;85.00
50013;DHT22;35901;48.694;9.476;2022-09-09T18:41:42;16.80;85.20
50013;DHT22;35901;48.694;9.476;2022-09-09T18:44:33;16.70;85.60
50013;DHT22;35901;48.694;9.476;2022-09-09T18:47:04;16.70;85.80
50013;DHT22;35901;48.694;9.476;2022-09-09T18:49:55;16.70;86.20
50013;DHT22;35901;48.694;9.476;2022-09-09T19:00:19;16.60;86.80
50013;DHT22;35901;48.694;9.476;2022-09-09T19:02:48;16.60;86.80
50013;DHT22;35901;48.694;9.476;2022-09-09T19:05:15;16.60;86.90
50013;DHT22;35901;48.694;9.476;2022-09-09T19:07:46;16.60;87.10
50013;DHT22;35901;48.694;9.476;2022-09-09T19:10:26;16.60;87.80
50013;DHT22;35901;48.694;9.476;2022-09-09T19:12:57;16.60;87.80
50013;DHT22;35901;48.694;9.476;2022-09-09T19:15:29;16.50;87.90
50013;DHT22;35901;48.694;9.476;2022-09-09T19:18:40;16.60;88.30
50013;DHT22;35901;48.694;9.476;2022-09-09T19:28:44;16.60;89.10
50013;DHT22;35901;48.694;9.476;2022-09-09T19:31:17;16.50;89.50
50013;DHT22;35901;48.694;9.476;2022-09-09T19:33:44;16.30;90.00
50013;DHT22;35901;48.694;9.476;2022-09-09T19:36:17;16.10;90.20
50013;DHT22;35901;48.694;9.476;2022-09-09T19:39:14;15.70;90.60
50013;DHT22;35901;48.694;9.476;2022-09-09T19:46:07;15.10;92.20
50013;DHT22;35901;48.694;9.476;2022-09-09T19:56:08;14.80;93.20
50013;DHT22;35901;48.694;9.476;2022-09-09T19:58:35;14.70;93.80
50013;DHT22;35901;48.694;9.476;2022-09-09T20:01:12;14.60;94.00
50013;DHT22;35901;48.694;9.476;2022-09-09T20:04:06;14.60;94.60
50013;DHT22;35901;48.694;9.476;2022-09-09T20:07:26;14.70;95.00
50013;DHT22;35901;48.694;9.476;2022-09-09T20:09:57;14.80;94.80
50013;DHT22;35901;48.694;9.476;2022-09-09T20:16:13;14.90;94.80
50013;DHT22;35901;48.694;9.476;2022-09-09T20:26:26;14.90;94.60
50013;DHT22;35901;48.694;9.476;2022-09-09T20:28:54;14.80;94.80
50013;DHT22;35901;48.694;9.476;2022-09-09T20:31:25;14.70;95.00
50013;DHT22;35901;48.694;9.476;2022-09-09T20:40:51;14.50;95.80
50013;DHT22;35901;48.694;9.476;2022-09-09T20:43:17;14.50;95.80
50013;DHT22;35901;48.694;9.476;2022-09-09T20:46:06;14.40;96.20
50013;DHT22;35901;48.694;9.476;2022-09-09T20:48:37;14.40;96.50
50013;DHT22;35901;48.694;9.476;2022-09-09T20:51:08;14.40;97.40
50013;DHT22;35901;48.694;9.476;2022-09-09T21:00:21;14.70;98.10